Time;durP1;ratioP1;P1;durP2;ratioP2;P2;SDS_P1;SDS_P2;PMS_P1;PMS_P2;Temp;Humidity;BMP_temperature;BMP_pressure;BME280_temperature;BME280_humidity;BME280_pressure;Samples;Min_cycle;Max_cycle;Signal;HPM_P1;HPM_P2
2021/10/20 00:00:32;;;;;;;8.30;7.80;;;13.50;99.90;;;;;;5075080;28;20245;-67
2021/10/20 00:02:57;;;;;;;8.30;7.80;;;13.50;99.90;;;;;;5075578;28;20627;-67
2021/10/20 00:05:23;;;;;;;8.60;8.00;;;13.50;99.90;;;;;;5056350;28;20212;-66
2021/10/20 00:07:51;;;;;;;7.20;6.80;;;13.50;99.90;;;;;;5055399;28;20195;-68
2021/10/20 00:10:18;;;;;;;7.43;7.03;;;13.60;99.90;;;;;;5071817;28;20178;-67
2021/10/20 00:12:46;;;;;;;7.20;6.70;;;13.60;99.90;;;;;;5075249;28;20198;-67
2021/10/20 00:15:14;;;;;;;7.83;7.27;;;13.60;99.90;;;;;;5058813;28;20206;-67
2021/10/20 00:17:39;;;;;;;7.33;6.83;;;13.60;99.90;;;;;;5055295;28;20559;-68
2021/10/20 00:20:10;;;;;;;7.17;6.77;;;13.70;99.90;;;;;;5069173;28;20177;-66
2021/10/20 00:22:37;;;;;;;7.07;6.47;;;13.70;99.90;;;;;;5075187;28;20220;-67
2021/10/20 00:25:04;;;;;;;7.20;6.60;;;13.80;99.90;;;;;;5061004;28;20179;-67
2021/10/20 00:27:31;;;;;;;7.17;6.73;;;13.90;99.90;;;;;;5055038;28;20175;-67
2021/10/20 00:29:56;;;;;;;7.80;7.27;;;13.90;99.90;;;;;;5055031;28;20216;-67
2021/10/20 00:32:22;;;;;;;6.97;6.47;;;14.00;99.90;;;;;;5062541;28;20240;-67
2021/10/20 00:34:49;;;;;;;6.87;6.47;;;14.10;99.90;;;;;;5074695;28;20205;-68
2021/10/20 00:37:14;;;;;;;7.80;7.20;;;14.10;99.90;;;;;;5067993;28;20214;-67
2021/10/20 00:39:40;;;;;;;7.50;6.90;;;14.10;99.90;;;;;;5054427;28;20195;-67
2021/10/20 00:42:05;;;;;;;7.23;6.73;;;14.10;99.90;;;;;;5072895;28;20170;-67
2021/10/20 00:45:05;;;;;;;7.23;6.73;;;14.00;99.90;;;;;;5074747;28;20627;-68
2021/10/20 00:47:30;;;;;;;6.13;5.83;;;14.10;99.90;;;;;;5000627;28;20199;-68
2021/10/20 00:49:57;;;;;;;6.63;6.23;;;14.00;99.90;;;;;;5058756;28;20551;-65
2021/10/20 00:52:25;;;;;;;6.83;6.33;;;14.10;99.90;;;;;;5074387;28;20671;-67
2021/10/20 00:54:53;;;;;;;7.53;6.83;;;14.10;99.90;;;;;;5072527;28;20217;-67
2021/10/20 00:57:21;;;;;;;7.63;7.07;;;14.00;99.90;;;;;;5074439;28;20241;-68
2021/10/20 00:59:48;;;;;;;6.90;6.40;;;14.00;99.90;;;;;;5068202;28;20602;-67
2021/10/20 01:02:14;;;;;;;6.17;5.87;;;14.00;99.90;;;;;;5054196;28;20171;-67
2021/10/20 01:04:40;;;;;;;7.37;6.87;;;13.90;99.90;;;;;;5057943;28;20185;-68
2021/10/20 01:07:07;;;;;;;7.00;6.50;;;13.90;99.90;;;;;;5074169;28;20316;-68
2021/10/20 01:09:35;;;;;;;6.90;6.40;;;13.90;99.90;;;;;;5069776;28;20186;-66
2021/10/20 01:12:01;;;;;;;7.20;6.70;;;13.80;99.90;;;;;;5054265;28;20626;-67
2021/10/20 01:14:29;;;;;;;7.47;6.87;;;13.80;99.90;;;;;;5055002;28;20237;-66
2021/10/20 01:16:55;;;;;;;6.77;6.30;;;13.70;99.90;;;;;;5072982;28;20625;-68
2021/10/20 01:19:21;;;;;;;7.17;6.77;;;13.70;99.90;;;;;;5053494;28;20171;-67
2021/10/20 01:21:47;;;;;;;7.47;7.07;;;13.70;99.90;;;;;;5053955;28;20174;-68
2021/10/20 01:24:13;;;;;;;7.77;7.17;;;13.60;99.90;;;;;;5072402;28;20173;-66
2021/10/20 01:26:39;;;;;;;7.80;7.30;;;13.60;99.90;;;;;;5073943;28;20273;-67
2021/10/20 01:29:06;;;;;;;6.47;6.07;;;13.50;99.90;;;;;;5056300;28;20716;-66
2021/10/20 01:31:31;;;;;;;6.93;6.53;;;13.50;99.90;;;;;;5054609;28;20573;-66
2021/10/20 01:33:57;;;;;;;6.80;6.40;;;13.50;99.90;;;;;;5053632;28;20174;-67
2021/10/20 01:36:22;;;;;;;7.30;6.80;;;13.40;99.90;;;;;;5055538;28;20213;-66
2021/10/20 01:38:50;;;;;;;8.50;8.00;;;13.40;99.90;;;;;;5073726;28;20170;-67
2021/10/20 01:41:16;;;;;;;8.10;7.60;;;13.40;99.90;;;;;;5071945;28;20169;-66
2021/10/20 01:43:47;;;;;;;8.50;7.83;;;13.50;99.90;;;;;;5053649;28;20167;-66
2021/10/20 01:46:20;;;;;;;7.77;7.17;;;13.50;99.90;;;;;;5053243;28;20216;-66
2021/10/20 01:48:47;;;;;;;7.13;6.70;;;13.50;99.90;;;;;;5073568;28;20161;-66
2021/10/20 01:51:15;;;;;;;6.97;6.53;;;13.60;99.90;;;;;;5073038;28;20243;-66
2021/10/20 01:53:42;;;;;;;7.27;6.77;;;13.60;99.90;;;;;;5053553;28;20175;-66
2021/10/20 01:56:09;;;;;;;7.37;6.77;;;13.60;99.90;;;;;;5060228;28;20201;-67
2021/10/20 01:58:35;;;;;;;7.30;6.90;;;13.50;99.90;;;;;;5055429;28;20231;-66
2021/10/20 02:01:01;;;;;;;7.47;6.63;;;13.50;99.90;;;;;;5067386;28;20170;-65
2021/10/20 02:03:27;;;;;;;7.10;6.60;;;13.50;99.90;;;;;;5053025;28;20619;-66
2021/10/20 02:05:55;;;;;;;7.17;6.67;;;13.50;99.90;;;;;;5056352;28;20274;-66
2021/10/20 02:08:24;;;;;;;7.30;6.80;;;13.40;99.90;;;;;;5072854;28;20197;-67
2021/10/20 02:10:50;;;;;;;7.27;6.67;;;13.40;99.90;;;;;;5069787;28;20178;-67
2021/10/20 02:13:15;;;;;;;7.23;6.73;;;13.40;99.90;;;;;;5053012;28;20305;-66
2021/10/20 02:15:41;;;;;;;7.77;7.27;;;13.30;99.90;;;;;;5053467;28;20206;-67
2021/10/20 02:18:07;;;;;;;9.00;8.10;;;13.20;99.90;;;;;;5072698;28;20174;-67
2021/10/20 02:20:32;;;;;;;7.90;7.40;;;13.20;99.90;;;;;;5072209;28;20174;-67
2021/10/20 02:22:58;;;;;;;7.73;7.13;;;13.20;99.90;;;;;;5053272;28;20260;-67
2021/10/20 02:25:24;;;;;;;7.30;6.90;;;13.10;99.90;;;;;;5067385;28;20204;-67
2021/10/20 02:27:50;;;;;;;7.27;6.77;;;13.00;99.90;;;;;;5072630;28;20174;-66
2021/10/20 02:30:16;;;;;;;7.30;6.80;;;13.00;99.90;;;;;;5058640;28;20258;-67
2021/10/20 02:32:42;;;;;;;7.83;7.23;;;12.90;99.90;;;;;;5052639;28;20253;-66
2021/10/20 02:35:09;;;;;;;6.90;6.50;;;12.90;99.90;;;;;;5063824;28;20209;-66
2021/10/20 02:37:35;;;;;;;8.30;7.60;;;12.80;99.90;;;;;;5072427;28;20174;-65
2021/10/20 02:40:02;;;;;;;7.60;7.00;;;12.70;99.90;;;;;;5066918;28;20559;-65
2021/10/20 02:42:28;;;;;;;8.07;7.57;;;12.70;99.90;;;;;;5072322;28;20569;-66
2021/10/20 02:44:53;;;;;;;7.13;6.63;;;12.70;99.90;;;;;;5058798;28;20182;-65
2021/10/20 02:47:19;;;;;;;7.50;7.07;;;12.70;99.90;;;;;;5052202;28;20178;-66
2021/10/20 02:49:44;;;;;;;7.00;6.60;;;12.70;99.90;;;;;;5063178;28;20240;-66
2021/10/20 02:52:10;;;;;;;7.57;7.07;;;12.80;99.90;;;;;;5069207;28;20257;-66
2021/10/20 02:54:36;;;;;;;7.00;6.60;;;12.80;99.90;;;;;;5052137;28;20202;-65
2021/10/20 02:57:02;;;;;;;7.40;6.90;;;12.80;99.90;;;;;;5052726;28;20183;-65
2021/10/20 02:59:27;;;;;;;9.97;7.17;;;12.80;99.90;;;;;;5071668;28;20651;-65
2021/10/20 03:01:53;;;;;;;7.77;7.23;;;12.80;99.90;;;;;;5071906;28;20526;-66
2021/10/20 03:04:19;;;;;;;8.37;7.60;;;12.80;99.90;;;;;;5052269;28;20241;-66
2021/10/20 03:06:44;;;;;;;7.47;6.87;;;12.80;99.90;;;;;;5051871;28;20255;-66
2021/10/20 03:09:10;;;;;;;8.10;7.50;;;12.70;99.90;;;;;;5069048;28;20174;-65
2021/10/20 03:11:36;;;;;;;8.00;7.30;;;12.70;99.90;;;;;;5071821;28;20228;-64
2021/10/20 03:14:01;;;;;;;7.83;7.03;;;12.60;99.90;;;;;;5055811;28;20174;-66
2021/10/20 03:16:27;;;;;;;7.53;6.93;;;12.60;99.90;;;;;;5050459;28;20213;-65
2021/10/20 03:18:53;;;;;;;6.80;6.40;;;12.60;99.90;;;;;;5065833;28;20257;-65
2021/10/20 03:21:19;;;;;;;8.17;7.57;;;12.60;99.90;;;;;;5061403;28;20210;-65
2021/10/20 03:23:45;;;;;;;8.03;7.43;;;12.50;99.90;;;;;;5051791;28;20171;-65
2021/10/20 03:26:11;;;;;;;7.70;7.20;;;12.50;99.90;;;;;;5057800;28;20204;-65
2021/10/20 03:28:36;;;;;;;7.43;6.93;;;12.50;99.90;;;;;;5071711;28;20178;-65
2021/10/20 03:31:02;;;;;;;8.00;7.40;;;12.40;99.90;;;;;;5046795;28;20175;-66
2021/10/20 03:33:28;;;;;;;8.10;7.47;;;12.40;99.90;;;;;;5050877;28;20175;-65
2021/10/20 03:35:53;;;;;;;8.00;7.50;;;12.30;99.90;;;;;;5055916;28;20198;-66
2021/10/20 03:38:19;;;;;;;8.00;7.50;;;12.30;99.90;;;;;;5064354;28;20186;-66
2021/10/20 03:40:45;;;;;;;8.30;7.60;;;12.30;99.90;;;;;;5053895;28;20305;-65
2021/10/20 03:43:10;;;;;;;7.53;7.03;;;12.30;99.90;;;;;;5071610;28;20185;-65
2021/10/20 03:45:36;;;;;;;7.90;7.20;;;12.20;99.90;;;;;;5070127;28;20194;-66
2021/10/20 03:48:02;;;;;;;8.27;7.73;;;12.20;99.90;;;;;;5059983;28;20178;-66
2021/10/20 03:50:27;;;;;;;8.20;7.60;;;12.10;99.90;;;;;;5071026;28;20173;-66
2021/10/20 03:52:53;;;;;;;7.87;7.17;;;12.10;99.90;;;;;;5071457;28;20170;-66
2021/10/20 03:55:19;;;;;;;7.70;7.20;;;12.10;99.90;;;;;;5057889;28;20288;-65
2021/10/20 03:57:44;;;;;;;7.93;7.23;;;12.00;99.90;;;;;;5071542;28;20170;-67
2021/10/20 04:00:14;;;;;;;8.20;7.43;;;12.00;99.90;;;;;;5036380;28;20261;-66
2021/10/20 04:02:44;;;;;;;7.73;7.20;;;11.80;99.90;;;;;;5051346;28;20204;-66
2021/10/20 04:05:11;;;;;;;7.90;7.37;;;11.80;99.90;;;;;;5078387;22;20202;-67
2021/10/20 04:07:40;;;;;;;7.83;7.27;;;11.80;99.90;;;;;;5070807;28;20255;-68
2021/10/20 04:10:08;;;;;;;8.07;7.47;;;11.80;99.90;;;;;;5069001;28;20166;-67
2021/10/20 04:12:33;;;;;;;8.17;7.50;;;11.80;99.90;;;;;;5071096;28;20173;-67
2021/10/20 04:14:59;;;;;;;8.97;8.27;;;12.00;99.90;;;;;;5057836;28;20591;-68
2021/10/20 04:17:25;;;;;;;8.27;7.63;;;12.20;99.90;;;;;;5051259;28;20199;-67
2021/10/20 04:19:50;;;;;;;9.43;8.73;;;12.40;99.90;;;;;;5062473;28;20178;-68
2021/10/20 04:22:16;;;;;;;8.17;7.57;;;12.70;99.90;;;;;;5071006;28;20166;-67
2021/10/20 04:24:41;;;;;;;8.00;7.40;;;13.00;99.90;;;;;;5061122;28;20190;-66
2021/10/20 04:27:07;;;;;;;7.47;6.97;;;13.30;99.90;;;;;;5051118;28;20195;-68
2021/10/20 04:29:33;;;;;;;7.13;6.70;;;13.50;99.90;;;;;;5058566;28;20666;-67
2021/10/20 04:31:58;;;;;;;7.53;7.10;;;13.70;99.90;;;;;;5071048;28;20182;-68
2021/10/20 04:34:24;;;;;;;8.03;7.43;;;13.80;99.90;;;;;;5062942;28;20640;-67
2021/10/20 04:36:49;;;;;;;8.30;7.57;;;13.90;99.90;;;;;;5051170;28;20225;-67
2021/10/20 04:39:15;;;;;;;8.00;7.40;;;14.00;99.90;;;;;;5066259;28;20251;-67
2021/10/20 04:41:41;;;;;;;7.57;7.17;;;14.10;99.90;;;;;;5070615;28;20171;-68
2021/10/20 04:44:06;;;;;;;7.80;7.30;;;14.10;99.90;;;;;;5052719;28;20201;-67
2021/10/20 04:46:32;;;;;;;7.10;6.67;;;14.20;99.90;;;;;;5054447;28;20252;-67
2021/10/20 04:48:57;;;;;;;7.17;6.70;;;14.20;99.90;;;;;;5073005;28;20252;-66
2021/10/20 04:51:23;;;;;;;7.70;7.10;;;14.20;99.90;;;;;;5074313;28;20177;-67
2021/10/20 04:53:49;;;;;;;7.27;6.87;;;14.20;99.90;;;;;;5057295;28;20225;-67
2021/10/20 04:56:14;;;;;;;7.63;7.13;;;14.30;99.90;;;;;;5054305;28;20216;-67
2021/10/20 04:58:40;;;;;;;8.00;7.27;;;14.30;99.90;;;;;;5069483;28;20798;-67
2021/10/20 05:01:05;;;;;;;8.13;7.53;;;14.30;99.90;;;;;;5072753;28;20181;-67
2021/10/20 05:03:31;;;;;;;7.37;6.97;;;14.40;99.90;;;;;;5060664;28;20571;-67
2021/10/20 05:05:56;;;;;;;7.63;7.13;;;14.40;99.90;;;;;;5054047;28;20210;-68
2021/10/20 05:08:22;;;;;;;6.87;6.33;;;14.40;99.90;;;;;;5065611;28;20182;-68
2021/10/20 05:10:49;;;;;;;7.50;7.00;;;14.50;99.90;;;;;;5065101;28;20214;-67
2021/10/20 05:13:14;;;;;;;7.63;7.03;;;14.50;99.90;;;;;;5054074;28;20171;-67
2021/10/20 05:15:42;;;;;;;6.90;6.50;;;14.50;99.90;;;;;;5059149;28;20210;-68
2021/10/20 05:18:10;;;;;;;6.80;6.30;;;14.50;99.90;;;;;;5072867;28;20174;-68
2021/10/20 05:20:36;;;;;;;7.33;6.80;;;14.50;99.90;;;;;;5069164;28;20175;-67
2021/10/20 05:23:02;;;;;;;7.83;7.20;;;14.50;99.90;;;;;;5054051;28;20179;-67
2021/10/20 05:25:28;;;;;;;7.10;6.60;;;14.40;99.90;;;;;;5056486;28;20281;-68
2021/10/20 05:27:53;;;;;;;7.60;7.10;;;14.40;99.90;;;;;;5074188;28;20174;-68
2021/10/20 05:30:19;;;;;;;7.30;6.70;;;14.40;99.90;;;;;;5072171;28;20260;-68
2021/10/20 05:32:45;;;;;;;7.43;6.90;;;14.40;99.90;;;;;;5052512;28;20186;-69
2021/10/20 05:35:18;;;;;;;7.90;7.30;;;14.40;99.90;;;;;;5053714;28;20194;-67
2021/10/20 05:37:45;;;;;;;8.00;7.47;;;14.40;99.90;;;;;;5053733;28;20182;-68
2021/10/20 05:40:11;;;;;;;8.30;7.60;;;14.40;99.90;;;;;;5069378;28;20235;-67
2021/10/20 05:42:36;;;;;;;7.93;7.23;;;14.40;99.90;;;;;;5073721;28;20166;-69
2021/10/20 05:45:02;;;;;;;9.03;8.13;;;14.40;99.90;;;;;;5058905;28;20187;-66
2021/10/20 05:47:28;;;;;;;7.77;7.20;;;14.40;99.90;;;;;;5053407;28;20236;-67
2021/10/20 05:49:53;;;;;;;8.37;7.67;;;14.40;99.90;;;;;;5065753;28;20221;-68
2021/10/20 05:52:19;;;;;;;7.60;7.00;;;14.40;99.90;;;;;;5072009;28;20496;-68
2021/10/20 05:54:45;;;;;;;7.40;6.90;;;14.40;99.90;;;;;;5061859;28;20207;-68
2021/10/20 05:57:10;;;;;;;7.20;6.70;;;14.40;99.90;;;;;;5053061;28;20288;-68
2021/10/20 05:59:36;;;;;;;7.43;6.93;;;14.50;99.90;;;;;;5061769;28;20212;-67
2021/10/20 06:02:01;;;;;;;7.33;6.80;;;14.50;99.90;;;;;;5073162;28;20205;-68
2021/10/20 06:04:27;;;;;;;7.47;6.97;;;14.50;99.90;;;;;;5065704;28;20620;-68
2021/10/20 06:06:53;;;;;;;6.73;6.33;;;14.60;99.90;;;;;;5053093;28;20246;-67
2021/10/20 06:09:19;;;;;;;7.80;7.20;;;14.50;99.90;;;;;;5058028;28;20177;-68
2021/10/20 06:11:44;;;;;;;7.50;6.90;;;14.50;99.90;;;;;;5072946;28;20252;-69
2021/10/20 06:14:10;;;;;;;10.00;7.00;;;14.50;99.90;;;;;;5068979;28;20224;-68
2021/10/20 06:16:36;;;;;;;7.70;7.20;;;14.50;99.90;;;;;;5051274;28;20257;-68
2021/10/20 06:19:05;;;;;;;7.97;7.37;;;14.60;99.90;;;;;;5054303;28;20201;-68
2021/10/20 06:21:32;;;;;;;8.77;8.17;;;14.60;99.90;;;;;;5067597;28;20181;-68
2021/10/20 06:23:57;;;;;;;8.37;7.87;;;14.60;99.90;;;;;;5051800;28;20181;-68
2021/10/20 06:26:23;;;;;;;9.60;8.80;;;14.70;99.90;;;;;;5072591;28;20194;-67
2021/10/20 06:28:49;;;;;;;8.27;7.67;;;14.70;99.90;;;;;;5072788;28;20201;-67
2021/10/20 06:31:14;;;;;;;7.70;7.20;;;14.70;99.90;;;;;;5052862;28;20655;-66
2021/10/20 06:33:40;;;;;;;8.03;7.53;;;14.70;99.90;;;;;;5065882;28;20185;-67
2021/10/20 06:36:06;;;;;;;7.37;6.73;;;14.80;99.90;;;;;;5071730;28;20209;-67
2021/10/20 06:38:31;;;;;;;7.77;7.27;;;14.80;99.90;;;;;;5052528;28;20317;-67
2021/10/20 06:40:57;;;;;;;7.57;7.07;;;14.90;99.90;;;;;;5051037;28;20185;-66
2021/10/20 06:43:23;;;;;;;8.17;7.57;;;14.90;99.90;;;;;;5068217;28;20750;-66
2021/10/20 06:45:49;;;;;;;8.67;8.07;;;15.00;99.90;;;;;;5072476;28;20196;-66
2021/10/20 06:48:16;;;;;;;8.53;7.80;;;15.00;99.90;;;;;;5065037;28;20182;-67
2021/10/20 06:50:42;;;;;;;8.00;7.50;;;15.10;99.90;;;;;;5059930;28;20270;-67
2021/10/20 06:53:07;;;;;;;6.90;6.50;;;15.10;99.90;;;;;;5066594;28;20266;-66
2021/10/20 06:55:33;;;;;;;7.47;6.97;;;15.20;99.90;;;;;;5070283;28;20580;-66
2021/10/20 06:57:58;;;;;;;6.93;6.50;;;15.20;99.90;;;;;;5058565;28;20179;-67
2021/10/20 07:00:24;;;;;;;7.53;7.03;;;15.30;99.90;;;;;;5069167;28;20253;-67
2021/10/20 07:02:50;;;;;;;6.97;6.57;;;15.40;99.90;;;;;;5060362;28;20214;-67
2021/10/20 07:05:15;;;;;;;7.17;6.70;;;15.40;99.90;;;;;;5051405;28;20178;-67
2021/10/20 07:07:41;;;;;;;7.50;6.90;;;15.40;99.90;;;;;;5055462;28;20704;-67
2021/10/20 07:10:07;;;;;;;7.90;7.30;;;15.40;99.90;;;;;;5051258;28;20594;-67
2021/10/20 07:12:35;;;;;;;6.90;6.50;;;15.50;99.90;;;;;;5058464;28;20214;-67
2021/10/20 07:15:01;;;;;;;7.40;6.80;;;15.50;99.90;;;;;;5070273;28;20284;-67
2021/10/20 07:17:27;;;;;;;7.60;7.10;;;15.50;99.90;;;;;;5063994;28;20278;-67
2021/10/20 07:19:52;;;;;;;6.80;6.40;;;15.50;99.90;;;;;;5051322;28;20202;-68
2021/10/20 07:22:18;;;;;;;7.30;6.73;;;15.60;99.90;;;;;;5064063;28;20730;-67
2021/10/20 07:24:44;;;;;;;7.83;6.90;;;15.60;99.90;;;;;;5071512;28;20635;-66
2021/10/20 07:27:09;;;;;;;7.97;7.37;;;15.60;99.90;;;;;;5058462;28;20198;-67
2021/10/20 07:29:35;;;;;;;7.50;7.00;;;15.70;99.90;;;;;;5049591;28;20182;-66
2021/10/20 07:32:01;;;;;;;7.57;7.03;;;15.70;99.90;;;;;;5060755;28;20243;-68
2021/10/20 07:34:27;;;;;;;7.80;7.30;;;15.80;99.90;;;;;;5070181;28;20202;-67
2021/10/20 07:36:55;;;;;;;8.00;7.43;;;15.80;99.90;;;;;;5063367;28;20218;-68
2021/10/20 07:39:21;;;;;;;8.07;7.53;;;15.80;99.90;;;;;;5050891;28;20205;-66
2021/10/20 07:41:48;;;;;;;8.20;7.60;;;15.90;99.90;;;;;;5057180;28;20194;-67
2021/10/20 07:44:15;;;;;;;7.13;6.63;;;16.00;99.90;;;;;;5071055;28;20215;-66
2021/10/20 07:46:40;;;;;;;8.17;7.40;;;16.10;99.90;;;;;;5069578;28;20190;-66
2021/10/20 07:49:06;;;;;;;7.23;6.73;;;16.10;99.90;;;;;;5069881;28;20177;-67
2021/10/20 07:51:32;;;;;;;7.77;7.27;;;16.30;99.90;;;;;;5069259;28;20174;-67
2021/10/20 07:53:57;;;;;;;7.43;6.90;;;16.30;99.90;;;;;;5059696;28;20174;-68
2021/10/20 07:56:26;;;;;;;7.70;7.20;;;16.50;99.90;;;;;;5070614;28;20713;-66
2021/10/20 07:58:52;;;;;;;6.87;6.37;;;16.60;99.90;;;;;;5070738;28;20193;-67
2021/10/20 08:01:17;;;;;;;8.07;7.30;;;16.60;99.90;;;;;;5050620;28;20685;-68
2021/10/20 08:03:43;;;;;;;7.47;6.93;;;16.70;99.90;;;;;;5051035;28;20166;-67
2021/10/20 08:06:09;;;;;;;7.07;6.57;;;16.80;99.90;;;;;;5052163;28;20675;-66
2021/10/20 08:08:34;;;;;;;6.90;6.40;;;16.80;99.90;;;;;;5050688;28;20262;-67
2021/10/20 08:11:00;;;;;;;7.07;6.57;;;16.90;99.90;;;;;;5066959;28;20182;-67
2021/10/20 08:13:25;;;;;;;7.93;7.20;;;16.90;99.90;;;;;;5069473;28;20182;-66
2021/10/20 08:15:51;;;;;;;7.27;6.77;;;16.90;99.90;;;;;;5069249;28;20210;-67
2021/10/20 08:18:17;;;;;;;7.03;6.63;;;16.90;99.90;;;;;;5070017;28;20257;-67
2021/10/20 08:20:42;;;;;;;6.90;6.50;;;17.00;99.90;;;;;;5061718;28;20229;-67
2021/10/20 08:23:08;;;;;;;7.30;6.90;;;16.90;99.90;;;;;;5054881;28;20258;-67
2021/10/20 08:25:38;;;;;;;7.13;6.73;;;16.90;99.90;;;;;;5059159;28;20501;-67
2021/10/20 08:28:06;;;;;;;7.00;6.50;;;16.90;99.90;;;;;;5070435;28;20205;-66
2021/10/20 08:30:33;;;;;;;7.40;6.80;;;16.90;99.90;;;;;;5074048;28;20170;-66
2021/10/20 08:33:00;;;;;;;7.47;6.87;;;16.80;99.90;;;;;;5062437;28;20192;-67
2021/10/20 08:35:25;;;;;;;7.23;6.73;;;16.80;99.90;;;;;;5058938;28;20233;-67
2021/10/20 08:37:56;;;;;;;6.50;6.10;;;16.80;99.90;;;;;;5073395;28;20221;-67
2021/10/20 08:40:36;;;;;;;6.87;6.37;;;16.80;99.90;;;;;;5068998;28;20181;-68
2021/10/20 08:43:02;;;;;;;7.70;7.00;;;16.90;99.90;;;;;;5053027;28;20595;-66
2021/10/20 08:45:28;;;;;;;7.03;6.57;;;17.00;99.90;;;;;;5055237;28;20194;-66
2021/10/20 08:47:55;;;;;;;6.70;6.30;;;17.00;99.90;;;;;;5056912;28;20181;-67
2021/10/20 08:50:23;;;;;;;7.10;6.57;;;17.10;99.90;;;;;;5064650;28;20183;-66
2021/10/20 08:52:50;;;;;;;6.70;6.30;;;17.20;99.90;;;;;;5054306;28;20182;-67
2021/10/20 08:55:17;;;;;;;6.40;5.90;;;17.30;99.90;;;;;;5067663;28;20233;-68
2021/10/20 08:57:44;;;;;;;7.17;6.67;;;17.40;99.90;;;;;;5074256;28;20158;-69
2021/10/20 09:00:11;;;;;;;6.83;6.27;;;17.50;99.90;;;;;;5073859;28;20166;-69
2021/10/20 09:02:40;;;;;;;7.17;6.53;;;17.50;99.90;;;;;;5054809;28;20182;-67
2021/10/20 09:05:07;;;;;;;6.30;5.90;;;17.60;99.90;;;;;;5053713;28;20162;-68
2021/10/20 09:07:32;;;;;;;7.13;6.53;;;17.50;99.90;;;;;;5071256;28;20204;-69
2021/10/20 09:09:58;;;;;;;7.20;6.60;;;17.40;99.90;;;;;;5073724;28;20229;-69
2021/10/20 09:12:26;;;;;;;7.00;6.60;;;17.40;99.90;;;;;;5057621;28;20198;-68
2021/10/20 09:14:59;;;;;;;6.80;6.40;;;17.40;99.90;;;;;;5065517;28;20233;-68
2021/10/20 09:17:40;;;;;;;6.70;6.30;;;17.50;99.90;;;;;;5065921;28;20699;-69
2021/10/20 09:20:20;;;;;;;6.97;6.43;;;17.50;99.90;;;;;;5062340;28;20170;-69
2021/10/20 09:23:07;;;;;;;6.67;6.27;;;17.60;99.90;;;;;;5054847;28;20178;-69
2021/10/20 09:25:36;;;;;;;6.83;6.33;;;17.70;99.90;;;;;;5065332;28;20233;-69
2021/10/20 09:28:03;;;;;;;7.23;6.73;;;17.80;99.90;;;;;;5073500;28;20194;-67
2021/10/20 09:30:30;;;;;;;7.43;6.93;;;17.80;99.90;;;;;;5064965;28;20617;-69
2021/10/20 09:32:58;;;;;;;7.60;7.00;;;17.80;99.90;;;;;;5072196;28;20178;-68
2021/10/20 09:35:24;;;;;;;6.73;6.33;;;17.70;99.90;;;;;;5062207;28;20210;-69
2021/10/20 09:37:58;;;;;;;7.20;6.70;;;17.70;99.90;;;;;;5053386;28;20171;-68
2021/10/20 09:40:23;;;;;;;7.50;7.00;;;17.60;99.90;;;;;;5059945;28;20269;-69
2021/10/20 09:42:54;;;;;;;6.93;6.40;;;17.60;99.90;;;;;;5073415;28;20170;-68
2021/10/20 09:45:22;;;;;;;6.77;6.37;;;17.60;99.90;;;;;;5065204;28;20245;-67
2021/10/20 09:47:48;;;;;;;7.00;6.60;;;17.70;99.90;;;;;;5053376;28;20233;-68
2021/10/20 09:50:16;;;;;;;6.93;6.53;;;17.80;99.90;;;;;;5058550;28;20202;-67
2021/10/20 09:52:45;;;;;;;7.03;6.60;;;17.80;99.90;;;;;;5073187;28;20236;-67
2021/10/20 09:55:26;;;;;;;6.90;6.40;;;17.80;99.90;;;;;;5067687;28;20194;-68
2021/10/20 09:58:02;;;;;;;8.33;7.50;;;17.80;99.90;;;;;;5052117;28;20643;-68
2021/10/20 10:00:28;;;;;;;7.53;7.03;;;17.90;99.90;;;;;;5059148;28;20197;-68
2021/10/20 10:02:55;;;;;;;6.73;6.27;;;17.90;99.90;;;;;;5071620;28;20212;-68
2021/10/20 10:05:21;;;;;;;6.57;6.07;;;17.90;99.90;;;;;;5062848;28;20182;-68
2021/10/20 10:07:47;;;;;;;6.57;6.17;;;17.90;99.90;;;;;;5096938;22;20718;-66
2021/10/20 10:10:12;;;;;;;6.87;6.40;;;17.80;99.90;;;;;;5071753;28;20208;-64
2021/10/20 10:12:40;;;;;;;6.70;6.30;;;17.70;99.90;;;;;;5072705;28;20249;-65
2021/10/20 10:15:15;;;;;;;7.80;7.30;;;17.70;99.90;;;;;;5053280;28;20199;-66
2021/10/20 10:17:42;;;;;;;7.90;7.30;;;17.60;99.90;;;;;;5052834;28;20667;-64
2021/10/20 10:20:17;;;;;;;7.73;7.23;;;17.50;99.90;;;;;;5071287;28;20516;-65
2021/10/20 10:22:54;;;;;;;8.27;7.73;;;17.50;99.90;;;;;;5072587;28;20177;-64
2021/10/20 10:25:40;;;;;;;8.27;7.73;;;17.30;99.90;;;;;;5052587;28;20185;-64
2021/10/20 10:28:18;;;;;;;8.00;7.40;;;17.10;99.90;;;;;;5053381;28;20167;-64
2021/10/20 10:30:55;;;;;;;8.57;7.97;;;16.90;99.90;;;;;;5072282;28;20166;-65
2021/10/20 10:33:29;;;;;;;8.50;7.90;;;16.80;99.90;;;;;;5054353;28;20178;-64
2021/10/20 10:36:24;;;;;;;9.03;8.17;;;16.80;99.90;;;;;;5052360;28;20238;-64
2021/10/20 10:38:52;;;;;;;7.80;7.30;;;16.80;99.90;;;;;;5039512;28;20272;-65
2021/10/20 10:41:29;;;;;;;8.23;7.63;;;16.90;99.90;;;;;;5052487;28;21676;-65
2021/10/20 10:44:01;;;;;;;8.53;7.93;;;16.90;99.90;;;;;;5052304;28;20171;-65
2021/10/20 10:46:29;;;;;;;8.27;7.67;;;16.90;99.90;;;;;;5052884;28;20222;-65
2021/10/20 10:48:56;;;;;;;8.30;7.67;;;17.00;99.90;;;;;;5052253;28;20228;-65
2021/10/20 10:51:22;;;;;;;7.87;7.30;;;17.10;99.90;;;;;;5055522;28;20189;-65
2021/10/20 10:54:02;;;;;;;7.00;6.60;;;17.20;99.90;;;;;;5071921;28;20385;-64
2021/10/20 10:56:28;;;;;;;7.50;7.00;;;17.20;99.90;;;;;;5067147;28;20206;-64
2021/10/20 10:59:02;;;;;;;7.60;7.00;;;17.30;99.90;;;;;;5051915;28;20591;-65
2021/10/20 11:01:44;;;;;;;7.50;6.97;;;17.50;99.90;;;;;;5050244;28;20167;-64
2021/10/20 11:04:32;;;;;;;6.50;6.00;;;17.70;99.90;;;;;;5053169;28;20270;-65
2021/10/20 11:07:01;;;;;;;6.93;6.43;;;17.80;99.90;;;;;;5071679;28;20217;-65
2021/10/20 11:09:31;;;;;;;7.37;6.87;;;17.90;99.90;;;;;;5068076;28;20171;-65
2021/10/20 11:11:58;;;;;;;7.80;7.20;;;18.00;99.90;;;;;;5051819;28;20245;-65
2021/10/20 11:14:26;;;;;;;7.97;7.37;;;18.00;99.90;;;;;;5053332;28;20162;-66
2021/10/20 11:16:57;;;;;;;8.23;7.63;;;18.00;99.90;;;;;;5071742;28;20564;-65
2021/10/20 11:19:24;;;;;;;8.10;7.50;;;18.10;99.90;;;;;;5069486;28;20253;-65
2021/10/20 11:21:51;;;;;;;7.37;6.87;;;18.10;99.90;;;;;;5051681;28;20175;-66
2021/10/20 11:24:17;;;;;;;6.97;6.57;;;18.20;99.90;;;;;;5051386;28;20175;-66
2021/10/20 11:26:50;;;;;;;7.20;6.70;;;18.20;99.90;;;;;;5051557;28;20190;-65
2021/10/20 11:29:16;;;;;;;9.03;8.43;;;18.20;99.90;;;;;;5051294;28;20171;-66
2021/10/20 11:31:56;;;;;;;9.07;8.40;;;18.20;99.90;;;;;;5070822;28;20543;-65
2021/10/20 11:34:24;;;;;;;11.10;10.50;;;18.10;99.90;;;;;;5071282;28;20246;-67
2021/10/20 11:36:50;;;;;;;8.63;8.00;;;18.10;99.90;;;;;;5071264;28;20202;-66
2021/10/20 11:39:17;;;;;;;8.00;7.10;;;18.10;99.90;;;;;;5054871;28;20249;-66
2021/10/20 11:41:53;;;;;;;7.80;7.20;;;17.90;99.90;;;;;;5051359;28;20246;-65
2021/10/20 11:44:24;;;;;;;7.87;7.27;;;17.90;99.90;;;;;;5066628;28;20311;-65
2021/10/20 11:46:50;;;;;;;8.03;7.47;;;17.80;99.90;;;;;;5071250;28;20622;-65
2021/10/20 11:49:15;;;;;;;8.93;8.43;;;17.70;99.90;;;;;;5056085;28;20210;-66
2021/10/20 11:51:43;;;;;;;7.70;7.20;;;17.70;99.90;;;;;;5051263;28;20289;-65
2021/10/20 11:54:09;;;;;;;7.53;6.87;;;17.80;99.90;;;;;;5064978;28;20201;-65
2021/10/20 11:56:35;;;;;;;7.77;7.03;;;18.00;99.90;;;;;;5060621;28;20245;-65
2021/10/20 11:59:01;;;;;;;7.57;7.07;;;18.10;99.90;;;;;;5057686;28;20250;-65
2021/10/20 12:01:28;;;;;;;8.10;7.50;;;18.30;99.90;;;;;;5067733;28;20718;-66
2021/10/20 12:03:54;;;;;;;7.23;6.73;;;18.50;99.90;;;;;;5077990;28;20712;-65
2021/10/20 12:06:22;;;;;;;7.40;6.90;;;18.50;99.90;;;;;;5068426;28;20214;-65
2021/10/20 12:08:49;;;;;;;7.20;6.70;;;18.60;99.90;;;;;;5057735;28;20170;-64
2021/10/20 12:11:19;;;;;;;7.27;6.77;;;18.70;99.90;;;;;;5064748;28;20178;-66
2021/10/20 12:13:45;;;;;;;7.27;6.70;;;18.80;99.90;;;;;;5077724;28;20651;-64
2021/10/20 12:16:15;;;;;;;7.03;6.53;;;19.00;99.90;;;;;;5071159;28;20210;-65
2021/10/20 12:18:43;;;;;;;6.97;6.30;;;19.30;99.90;;;;;;5057778;28;20588;-66
2021/10/20 12:21:11;;;;;;;6.87;6.43;;;19.40;99.90;;;;;;5062687;28;20266;-65
2021/10/20 12:23:38;;;;;;;7.33;6.80;;;19.40;99.90;;;;;;5077801;28;20170;-66
2021/10/20 12:26:07;;;;;;;7.93;7.30;;;19.30;99.90;;;;;;5076105;28;20220;-65
2021/10/20 12:28:33;;;;;;;7.40;6.60;;;19.40;99.90;;;;;;5077496;28;20538;-66
2021/10/20 12:31:07;;;;;;;7.43;6.87;;;19.30;99.90;;;;;;5066327;28;20190;-65
2021/10/20 12:33:38;;;;;;;7.47;6.97;;;19.40;99.90;;;;;;5057514;28;20757;-64
2021/10/20 12:36:05;;;;;;;7.73;7.10;;;19.50;99.90;;;;;;5057838;28;20629;-64
2021/10/20 12:38:34;;;;;;;7.70;7.20;;;19.60;99.90;;;;;;5057404;28;20363;-65
2021/10/20 12:41:10;;;;;;;7.10;6.60;;;19.50;99.90;;;;;;5075863;28;20201;-64
2021/10/20 12:43:36;;;;;;;6.93;6.43;;;19.40;99.90;;;;;;5077710;28;20224;-65
2021/10/20 12:46:03;;;;;;;7.70;7.10;;;19.30;99.90;;;;;;5057912;28;20203;-64